AAL1 KDTW-KPHL
Flight info
| Callsign | AAL1 |
|---|---|
| Flight time | 1h 9m |
| Altitude | 37000 |
| Route | PAVYL3 ESSBE CXR EWC JST BOJID4 |
| Aircraft | B738/M-VGDW/C |
Departure
| Time | 2026-05-05 00:08 |
|---|---|
| Airport | Detroit Metropolitan Wayne County Airport (KDTW) |
Arrival
| Time | 2026-05-05 01:18 |
|---|---|
| Airport | Philadelphia International Airport (KPHL) |
| Time | Latitude | Longitude | Altitude | Speed | Heading |
|---|---|---|---|---|---|
| 2026-05-04 23:00 | 42.22995 | -83.34658 | 641 ft | 0 kts | 144° |
| 2026-05-04 23:53 | 42.23000 | -83.34663 | 641 ft | 2 kts | 156° |
| 2026-05-04 23:53 | 42.23014 | -83.34673 | 641 ft | 2 kts | 142° |
| 2026-05-04 23:53 | 42.23027 | -83.34683 | 641 ft | 2 kts | 162° |
| 2026-05-04 23:54 | 42.23041 | -83.34689 | 641 ft | 2 kts | 171° |
| 2026-05-04 23:54 | 42.23056 | -83.34689 | 641 ft | 2 kts | 184° |
| 2026-05-04 23:54 | 42.23071 | -83.34686 | 641 ft | 2 kts | 196° |
| 2026-05-04 23:54 | 42.23085 | -83.34679 | 641 ft | 2 kts | 208° |
| 2026-05-04 23:55 | 42.23092 | -83.34674 | 641 ft | 1 kts | 215° |
| 2026-05-04 23:55 | 42.23095 | -83.34671 | 641 ft | 0 kts | 215° |
| 2026-05-04 23:58 | 42.23078 | -83.34687 | 641 ft | 9 kts | 217° |
| 2026-05-04 23:58 | 42.22986 | -83.34790 | 641 ft | 22 kts | 218° |
| 2026-05-04 23:58 | 42.22872 | -83.34900 | 641 ft | 18 kts | 212° |
| 2026-05-04 23:59 | 42.22760 | -83.34983 | 642 ft | 17 kts | 209° |
| 2026-05-04 23:59 | 42.22641 | -83.35069 | 642 ft | 23 kts | 210° |
| 2026-05-04 23:59 | 42.22501 | -83.35178 | 642 ft | 22 kts | 208° |
| 2026-05-04 23:59 | 42.22369 | -83.35273 | 642 ft | 19 kts | 210° |
| 2026-05-05 00:00 | 42.22259 | -83.35370 | 642 ft | 18 kts | 210° |
| 2026-05-05 00:00 | 42.22222 | -83.35397 | 642 ft | 18 kts | 209° |
| 2026-05-05 00:00 | 42.22043 | -83.35529 | 642 ft | 16 kts | 209° |
| 2026-05-05 00:00 | 42.21942 | -83.35604 | 642 ft | 16 kts | 209° |
| 2026-05-05 00:01 | 42.21850 | -83.35652 | 642 ft | 12 kts | 165° |
| 2026-05-05 00:01 | 42.21821 | -83.35554 | 642 ft | 14 kts | 91° |
| 2026-05-05 00:01 | 42.21827 | -83.35375 | 642 ft | 23 kts | 84° |
| 2026-05-05 00:01 | 42.21830 | -83.35166 | 642 ft | 21 kts | 91° |
| 2026-05-05 00:02 | 42.21830 | -83.34970 | 641 ft | 20 kts | 88° |
| 2026-05-05 00:02 | 42.21833 | -83.34792 | 641 ft | 18 kts | 89° |
| 2026-05-05 00:02 | 42.21835 | -83.34653 | 640 ft | 13 kts | 89° |
| 2026-05-05 00:02 | 42.21848 | -83.34528 | 640 ft | 13 kts | 61° |
| 2026-05-05 00:03 | 42.21923 | -83.34454 | 639 ft | 13 kts | 28° |
| 2026-05-05 00:03 | 42.22012 | -83.34389 | 639 ft | 16 kts | 28° |
| 2026-05-05 00:03 | 42.22119 | -83.34312 | 639 ft | 17 kts | 28° |
| 2026-05-05 00:03 | 42.22226 | -83.34233 | 639 ft | 17 kts | 28° |
| 2026-05-05 00:04 | 42.22330 | -83.34156 | 639 ft | 16 kts | 28° |
| 2026-05-05 00:04 | 42.22432 | -83.34081 | 638 ft | 16 kts | 29° |
| 2026-05-05 00:04 | 42.22533 | -83.34006 | 638 ft | 16 kts | 29° |
| 2026-05-05 00:04 | 42.22632 | -83.33934 | 638 ft | 15 kts | 29° |
| 2026-05-05 00:05 | 42.22728 | -83.33862 | 638 ft | 15 kts | 30° |
| 2026-05-05 00:05 | 42.22822 | -83.33791 | 637 ft | 15 kts | 31° |
| 2026-05-05 00:05 | 42.22856 | -83.33717 | 637 ft | 6 kts | 106° |
| 2026-05-05 00:05 | 42.22836 | -83.33660 | 637 ft | 8 kts | 123° |
| 2026-05-05 00:06 | 42.22785 | -83.33649 | 637 ft | 8 kts | 205° |
| 2026-05-05 00:06 | 42.22773 | -83.33656 | 637 ft | 0 kts | 206° |
| 2026-05-05 00:07 | 42.22733 | -83.33684 | 637 ft | 29 kts | 210° |
| 2026-05-05 00:07 | 42.22284 | -83.34019 | 638 ft | 113 kts | 209° |
| 2026-05-05 00:08 | 42.21390 | -83.34663 | 702 ft | 172 kts | 210° |
| 2026-05-05 00:08 | 42.20331 | -83.35304 | 1758 ft | 166 kts | 202° |
| 2026-05-05 00:08 | 42.19223 | -83.35463 | 2667 ft | 170 kts | 187° |
| 2026-05-05 00:08 | 42.17974 | -83.35241 | 3153 ft | 191 kts | 182° |
| 2026-05-05 00:09 | 42.16612 | -83.35085 | 3716 ft | 200 kts | 189° |
| 2026-05-05 00:09 | 42.15208 | -83.35117 | 4283 ft | 212 kts | 191° |
| 2026-05-05 00:09 | 42.13665 | -83.35175 | 4783 ft | 232 kts | 191° |
| 2026-05-05 00:09 | 42.12012 | -83.35232 | 5424 ft | 246 kts | 190° |
| 2026-05-05 00:10 | 42.10294 | -83.35251 | 6283 ft | 252 kts | 187° |
| 2026-05-05 00:10 | 42.08496 | -83.34762 | 6883 ft | 282 kts | 162° |
| 2026-05-05 00:10 | 42.06964 | -83.33031 | 7754 ft | 304 kts | 131° |
| 2026-05-05 00:10 | 42.06145 | -83.30367 | 8579 ft | 321 kts | 102° |
| 2026-05-05 00:11 | 42.06227 | -83.27363 | 9433 ft | 328 kts | 81° |
| 2026-05-05 00:11 | 42.06759 | -83.24381 | 10371 ft | 326 kts | 75° |
| 2026-05-05 00:11 | 42.07344 | -83.21343 | 10793 ft | 345 kts | 78° |
| 2026-05-05 00:11 | 42.07841 | -83.18121 | 11404 ft | 356 kts | 81° |
| 2026-05-05 00:12 | 42.08233 | -83.14788 | 11854 ft | 370 kts | 83° |
| 2026-05-05 00:12 | 42.08566 | -83.11311 | 12299 ft | 383 kts | 83° |
| 2026-05-05 00:12 | 42.08888 | -83.07626 | 12709 ft | 398 kts | 84° |
| 2026-05-05 00:12 | 42.09211 | -83.03869 | 13281 ft | 409 kts | 83° |
| 2026-05-05 00:13 | 42.09539 | -83.00068 | 14060 ft | 413 kts | 83° |
| 2026-05-05 00:13 | 42.09871 | -82.96249 | 14886 ft | 415 kts | 83° |
| 2026-05-05 00:13 | 42.10209 | -82.92382 | 15539 ft | 422 kts | 83° |
| 2026-05-05 00:13 | 42.10556 | -82.88441 | 16249 ft | 427 kts | 83° |
| 2026-05-05 00:14 | 42.10904 | -82.84477 | 16935 ft | 433 kts | 83° |
| 2026-05-05 00:14 | 42.11262 | -82.80410 | 16985 ft | 441 kts | 83° |
| 2026-05-05 00:14 | 42.11617 | -82.76351 | 17002 ft | 434 kts | 83° |
| 2026-05-05 00:14 | 42.11966 | -82.72351 | 16980 ft | 429 kts | 83° |
| 2026-05-05 00:15 | 42.12312 | -82.68366 | 16995 ft | 432 kts | 83° |
| 2026-05-05 00:15 | 42.12663 | -82.64313 | 17423 ft | 441 kts | 83° |
| 2026-05-05 00:15 | 42.13016 | -82.60252 | 18304 ft | 440 kts | 83° |
| 2026-05-05 00:15 | 42.13370 | -82.56159 | 19031 ft | 443 kts | 83° |
| 2026-05-05 00:16 | 42.13721 | -82.52029 | 19645 ft | 448 kts | 83° |
| 2026-05-05 00:16 | 42.13954 | -82.47850 | 20271 ft | 453 kts | 88° |
| 2026-05-05 00:16 | 42.13937 | -82.43608 | 20903 ft | 456 kts | 93° |
| 2026-05-05 00:16 | 42.13664 | -82.39333 | 21479 ft | 461 kts | 97° |
| 2026-05-05 00:17 | 42.13228 | -82.35068 | 22107 ft | 464 kts | 99° |
| 2026-05-05 00:17 | 42.12707 | -82.30783 | 22672 ft | 468 kts | 101° |
| 2026-05-05 00:17 | 42.12143 | -82.26466 | 23231 ft | 471 kts | 102° |
| 2026-05-05 00:17 | 42.11562 | -82.22124 | 23848 ft | 474 kts | 102° |
| 2026-05-05 00:18 | 42.10973 | -82.17741 | 24332 ft | 479 kts | 102° |
| 2026-05-05 00:18 | 42.10385 | -82.13344 | 24928 ft | 481 kts | 101° |
| 2026-05-05 00:18 | 42.09797 | -82.08899 | 25479 ft | 484 kts | 101° |
| 2026-05-05 00:18 | 42.09217 | -82.04491 | 25998 ft | 487 kts | 101° |
| 2026-05-05 00:19 | 42.08630 | -81.99986 | 26466 ft | 492 kts | 101° |
| 2026-05-05 00:19 | 42.08040 | -81.95445 | 27039 ft | 493 kts | 101° |
| 2026-05-05 00:19 | 42.07449 | -81.90895 | 27510 ft | 497 kts | 101° |
| 2026-05-05 00:19 | 42.06724 | -81.86355 | 27992 ft | 498 kts | 106° |
| 2026-05-05 00:20 | 42.05639 | -81.81947 | 28482 ft | 498 kts | 115° |
| 2026-05-05 00:20 | 42.04087 | -81.77846 | 29251 ft | 490 kts | 123° |
| 2026-05-05 00:20 | 42.02144 | -81.74176 | 29901 ft | 484 kts | 132° |
| 2026-05-05 00:20 | 41.99898 | -81.70887 | 30460 ft | 480 kts | 139° |
| 2026-05-05 00:21 | 41.97440 | -81.67871 | 31005 ft | 478 kts | 142° |
| 2026-05-05 00:21 | 41.94889 | -81.65019 | 31504 ft | 477 kts | 144° |
| 2026-05-05 00:21 | 41.92300 | -81.62225 | 32011 ft | 477 kts | 144° |
| 2026-05-05 00:21 | 41.89746 | -81.59478 | 32523 ft | 476 kts | 144° |
| 2026-05-05 00:22 | 41.87149 | -81.56660 | 33020 ft | 475 kts | 144° |
| 2026-05-05 00:22 | 41.84577 | -81.53833 | 33434 ft | 476 kts | 143° |
| 2026-05-05 00:22 | 41.82051 | -81.51020 | 33858 ft | 477 kts | 143° |
| 2026-05-05 00:22 | 41.79505 | -81.48154 | 34305 ft | 476 kts | 143° |
| 2026-05-05 00:23 | 41.76985 | -81.45291 | 34773 ft | 475 kts | 142° |
| 2026-05-05 00:23 | 41.74480 | -81.42430 | 35154 ft | 474 kts | 142° |
| 2026-05-05 00:23 | 41.72009 | -81.39599 | 35516 ft | 473 kts | 142° |
| 2026-05-05 00:23 | 41.69484 | -81.36703 | 35860 ft | 473 kts | 142° |
| 2026-05-05 00:24 | 41.66994 | -81.33845 | 36170 ft | 473 kts | 143° |
| 2026-05-05 00:24 | 41.64475 | -81.30954 | 36470 ft | 472 kts | 143° |
| 2026-05-05 00:24 | 41.61990 | -81.28104 | 36713 ft | 473 kts | 143° |
| 2026-05-05 00:25 | 41.56942 | -81.22331 | 36730 ft | 483 kts | 143° |
| 2026-05-05 00:25 | 41.51791 | -81.16421 | 36725 ft | 490 kts | 141° |
| 2026-05-05 00:26 | 41.46925 | -81.10098 | 36743 ft | 489 kts | 137° |
| 2026-05-05 00:26 | 41.42247 | -81.03490 | 36744 ft | 490 kts | 136° |
| 2026-05-05 00:27 | 41.37608 | -80.96873 | 36743 ft | 491 kts | 136° |
| 2026-05-05 00:27 | 41.32912 | -80.90257 | 36755 ft | 490 kts | 136° |
| 2026-05-05 00:28 | 41.28223 | -80.83726 | 36758 ft | 490 kts | 136° |
| 2026-05-05 00:28 | 41.23514 | -80.77212 | 36769 ft | 490 kts | 136° |
| 2026-05-05 00:29 | 41.18798 | -80.70716 | 36765 ft | 489 kts | 136° |
| 2026-05-05 00:29 | 41.14082 | -80.64230 | 36768 ft | 489 kts | 136° |
| 2026-05-05 00:29 | 41.11945 | -80.60740 | 36772 ft | 492 kts | 124° |
| 2026-05-05 00:30 | 41.10301 | -80.56709 | 36782 ft | 496 kts | 116° |
| 2026-05-05 00:30 | 41.07755 | -80.48247 | 36785 ft | 497 kts | 110° |
| 2026-05-05 00:31 | 41.05474 | -80.39619 | 36786 ft | 497 kts | 110° |
| 2026-05-05 00:31 | 41.03155 | -80.31056 | 36794 ft | 495 kts | 111° |
| 2026-05-05 00:32 | 41.00748 | -80.22568 | 36799 ft | 494 kts | 112° |
| 2026-05-05 00:32 | 40.98281 | -80.14126 | 36787 ft | 494 kts | 112° |
| 2026-05-05 00:33 | 40.95789 | -80.05709 | 36798 ft | 494 kts | 112° |
| 2026-05-05 00:33 | 40.93264 | -79.97227 | 36802 ft | 494 kts | 112° |
| 2026-05-05 00:34 | 40.90743 | -79.88786 | 36802 ft | 496 kts | 112° |
| 2026-05-05 00:34 | 40.88213 | -79.80330 | 36816 ft | 495 kts | 112° |
| 2026-05-05 00:35 | 40.85692 | -79.71923 | 36807 ft | 494 kts | 112° |
| 2026-05-05 00:35 | 40.83164 | -79.63523 | 36814 ft | 496 kts | 112° |
| 2026-05-05 00:36 | 40.80621 | -79.55098 | 36816 ft | 494 kts | 112° |
| 2026-05-05 00:36 | 40.78070 | -79.46673 | 36825 ft | 496 kts | 112° |
| 2026-05-05 00:37 | 40.75523 | -79.38292 | 36823 ft | 495 kts | 112° |
| 2026-05-05 00:37 | 40.72950 | -79.29841 | 36811 ft | 496 kts | 112° |
| 2026-05-05 00:38 | 40.70392 | -79.21470 | 36836 ft | 494 kts | 112° |
| 2026-05-05 00:38 | 40.67824 | -79.13099 | 36852 ft | 495 kts | 112° |
| 2026-05-05 00:39 | 40.65244 | -79.04716 | 36859 ft | 494 kts | 112° |
| 2026-05-05 00:39 | 40.62674 | -78.96387 | 36837 ft | 489 kts | 112° |
| 2026-05-05 00:39 | 40.61407 | -78.92285 | 36528 ft | 482 kts | 112° |
| 2026-05-05 00:40 | 40.60171 | -78.88292 | 36119 ft | 477 kts | 112° |
| 2026-05-05 00:40 | 40.58925 | -78.84273 | 35569 ft | 475 kts | 112° |
| 2026-05-05 00:40 | 40.57675 | -78.80250 | 34872 ft | 477 kts | 112° |
| 2026-05-05 00:40 | 40.56420 | -78.76218 | 34078 ft | 479 kts | 111° |
| 2026-05-05 00:41 | 40.55163 | -78.72182 | 33286 ft | 480 kts | 112° |
| 2026-05-05 00:41 | 40.53901 | -78.68137 | 32521 ft | 481 kts | 112° |
| 2026-05-05 00:41 | 40.52627 | -78.64059 | 31831 ft | 478 kts | 112° |
| 2026-05-05 00:41 | 40.51389 | -78.60106 | 31560 ft | 469 kts | 112° |
| 2026-05-05 00:42 | 40.50147 | -78.56144 | 31264 ft | 465 kts | 112° |
| 2026-05-05 00:42 | 40.48926 | -78.52254 | 31008 ft | 465 kts | 112° |
| 2026-05-05 00:42 | 40.47680 | -78.48289 | 30747 ft | 468 kts | 112° |
| 2026-05-05 00:42 | 40.46460 | -78.44412 | 30487 ft | 465 kts | 112° |
| 2026-05-05 00:43 | 40.45222 | -78.40485 | 30104 ft | 463 kts | 112° |
| 2026-05-05 00:43 | 40.43998 | -78.36606 | 29675 ft | 459 kts | 112° |
| 2026-05-05 00:43 | 40.42780 | -78.32753 | 29246 ft | 455 kts | 113° |
| 2026-05-05 00:43 | 40.41576 | -78.28950 | 28830 ft | 458 kts | 113° |
| 2026-05-05 00:44 | 40.40326 | -78.25008 | 28434 ft | 477 kts | 113° |
| 2026-05-05 00:44 | 40.39038 | -78.20954 | 27993 ft | 490 kts | 113° |
| 2026-05-05 00:44 | 40.37733 | -78.16853 | 27563 ft | 489 kts | 113° |
| 2026-05-05 00:44 | 40.36425 | -78.12748 | 27130 ft | 484 kts | 113° |
| 2026-05-05 00:45 | 40.35134 | -78.08702 | 26697 ft | 480 kts | 113° |
| 2026-05-05 00:45 | 40.33847 | -78.04675 | 26273 ft | 482 kts | 113° |
| 2026-05-05 00:45 | 40.32621 | -78.00571 | 25854 ft | 498 kts | 109° |
| 2026-05-05 00:45 | 40.31646 | -77.96197 | 25426 ft | 499 kts | 102° |
| 2026-05-05 00:46 | 40.31117 | -77.91734 | 24999 ft | 492 kts | 95° |
| 2026-05-05 00:46 | 40.30892 | -77.87312 | 24870 ft | 484 kts | 91° |
| 2026-05-05 00:46 | 40.30826 | -77.82961 | 24875 ft | 488 kts | 89° |
| 2026-05-05 00:46 | 40.30832 | -77.78459 | 24861 ft | 492 kts | 89° |
| 2026-05-05 00:47 | 40.30862 | -77.74050 | 24872 ft | 490 kts | 88° |
| 2026-05-05 00:47 | 40.30892 | -77.69593 | 24872 ft | 490 kts | 89° |
| 2026-05-05 00:47 | 40.30906 | -77.65126 | 24869 ft | 491 kts | 89° |
| 2026-05-05 00:47 | 40.30903 | -77.60661 | 24866 ft | 490 kts | 89° |
| 2026-05-05 00:48 | 40.30882 | -77.56203 | 24873 ft | 489 kts | 89° |
| 2026-05-05 00:48 | 40.30848 | -77.51746 | 24873 ft | 490 kts | 90° |
| 2026-05-05 00:48 | 40.30804 | -77.47351 | 24875 ft | 491 kts | 90° |
| 2026-05-05 00:48 | 40.30753 | -77.42897 | 24905 ft | 490 kts | 90° |
| 2026-05-05 00:49 | 40.30696 | -77.38466 | 24758 ft | 485 kts | 90° |
| 2026-05-05 00:49 | 40.30638 | -77.34072 | 24087 ft | 480 kts | 90° |
| 2026-05-05 00:49 | 40.30577 | -77.29736 | 23210 ft | 480 kts | 90° |
| 2026-05-05 00:49 | 40.30516 | -77.25386 | 22343 ft | 479 kts | 91° |
| 2026-05-05 00:50 | 40.30452 | -77.21027 | 21443 ft | 478 kts | 91° |
| 2026-05-05 00:50 | 40.30388 | -77.16695 | 20652 ft | 473 kts | 91° |
| 2026-05-05 00:50 | 40.30304 | -77.12457 | 19883 ft | 470 kts | 92° |
| 2026-05-05 00:50 | 40.30053 | -77.08237 | 19130 ft | 465 kts | 97° |
| 2026-05-05 00:51 | 40.29521 | -77.04120 | 18853 ft | 449 kts | 103° |
| 2026-05-05 00:51 | 40.28795 | -77.00249 | 18856 ft | 428 kts | 106° |
| 2026-05-05 00:51 | 40.27997 | -76.96632 | 18860 ft | 409 kts | 108° |
| 2026-05-05 00:51 | 40.27171 | -76.93149 | 18864 ft | 393 kts | 109° |
| 2026-05-05 00:52 | 40.26342 | -76.89746 | 18868 ft | 393 kts | 109° |
| 2026-05-05 00:52 | 40.25508 | -76.86315 | 18865 ft | 399 kts | 108° |
| 2026-05-05 00:52 | 40.24687 | -76.82900 | 18866 ft | 398 kts | 108° |
| 2026-05-05 00:52 | 40.23864 | -76.79440 | 18867 ft | 399 kts | 108° |
| 2026-05-05 00:53 | 40.23047 | -76.75980 | 18870 ft | 398 kts | 108° |
| 2026-05-05 00:53 | 40.22236 | -76.72528 | 18875 ft | 397 kts | 108° |
| 2026-05-05 00:53 | 40.21424 | -76.69064 | 18876 ft | 398 kts | 108° |
| 2026-05-05 00:53 | 40.20622 | -76.65643 | 18877 ft | 397 kts | 108° |
| 2026-05-05 00:54 | 40.19810 | -76.62183 | 18877 ft | 399 kts | 108° |
| 2026-05-05 00:54 | 40.18999 | -76.58725 | 18852 ft | 396 kts | 108° |
| 2026-05-05 00:54 | 40.18192 | -76.55290 | 18426 ft | 393 kts | 108° |
| 2026-05-05 00:54 | 40.17405 | -76.51946 | 17942 ft | 389 kts | 108° |
| 2026-05-05 00:55 | 40.16613 | -76.48583 | 17411 ft | 387 kts | 108° |
| 2026-05-05 00:55 | 40.15822 | -76.45238 | 16900 ft | 385 kts | 108° |
| 2026-05-05 00:55 | 40.15036 | -76.41922 | 16397 ft | 382 kts | 108° |
| 2026-05-05 00:55 | 40.14255 | -76.38628 | 15907 ft | 380 kts | 108° |
| 2026-05-05 00:56 | 40.13475 | -76.35340 | 15416 ft | 377 kts | 108° |
| 2026-05-05 00:56 | 40.12720 | -76.32131 | 15096 ft | 369 kts | 108° |
| 2026-05-05 00:56 | 40.12073 | -76.28879 | 14769 ft | 371 kts | 103° |
| 2026-05-05 00:56 | 40.11644 | -76.25546 | 14295 ft | 381 kts | 98° |
| 2026-05-05 00:57 | 40.11364 | -76.22115 | 13807 ft | 379 kts | 95° |
| 2026-05-05 00:57 | 40.11161 | -76.18701 | 13307 ft | 376 kts | 94° |
| 2026-05-05 00:57 | 40.10979 | -76.15307 | 12820 ft | 373 kts | 94° |
| 2026-05-05 00:57 | 40.10791 | -76.11953 | 12338 ft | 371 kts | 94° |
| 2026-05-05 00:58 | 40.10589 | -76.08611 | 11862 ft | 368 kts | 95° |
| 2026-05-05 00:58 | 40.10375 | -76.05299 | 11375 ft | 365 kts | 95° |
| 2026-05-05 00:58 | 40.10155 | -76.02051 | 10924 ft | 362 kts | 95° |
| 2026-05-05 00:58 | 40.09929 | -75.98816 | 10643 ft | 353 kts | 95° |
| 2026-05-05 00:59 | 40.09707 | -75.95657 | 10506 ft | 341 kts | 95° |
| 2026-05-05 00:59 | 40.09497 | -75.92675 | 10400 ft | 328 kts | 95° |
| 2026-05-05 00:59 | 40.09290 | -75.89745 | 10183 ft | 320 kts | 95° |
| 2026-05-05 00:59 | 40.09084 | -75.86845 | 9776 ft | 321 kts | 95° |
| 2026-05-05 01:00 | 40.08877 | -75.83907 | 9407 ft | 333 kts | 95° |
| 2026-05-05 01:00 | 40.08663 | -75.80839 | 8996 ft | 348 kts | 95° |
| 2026-05-05 01:00 | 40.08441 | -75.77690 | 8592 ft | 346 kts | 96° |
| 2026-05-05 01:00 | 40.08223 | -75.74607 | 8262 ft | 341 kts | 95° |
| 2026-05-05 01:01 | 40.08044 | -75.71549 | 8254 ft | 337 kts | 94° |
| 2026-05-05 01:01 | 40.07900 | -75.68448 | 8248 ft | 345 kts | 93° |
| 2026-05-05 01:01 | 40.07771 | -75.65356 | 8251 ft | 344 kts | 93° |
| 2026-05-05 01:01 | 40.07641 | -75.62227 | 8252 ft | 344 kts | 93° |
| 2026-05-05 01:02 | 40.07503 | -75.59106 | 8256 ft | 344 kts | 93° |
| 2026-05-05 01:02 | 40.07365 | -75.56060 | 8256 ft | 326 kts | 94° |
| 2026-05-05 01:02 | 40.07233 | -75.53224 | 8273 ft | 311 kts | 94° |
| 2026-05-05 01:02 | 40.07098 | -75.50391 | 8260 ft | 310 kts | 94° |
| 2026-05-05 01:03 | 40.06963 | -75.47595 | 8258 ft | 310 kts | 93° |
| 2026-05-05 01:03 | 40.06827 | -75.44812 | 8258 ft | 310 kts | 93° |
| 2026-05-05 01:03 | 40.06688 | -75.41985 | 8257 ft | 310 kts | 94° |
| 2026-05-05 01:03 | 40.06549 | -75.39200 | 8259 ft | 311 kts | 94° |
| 2026-05-05 01:04 | 40.06408 | -75.36365 | 8253 ft | 310 kts | 94° |
| 2026-05-05 01:04 | 40.06125 | -75.30776 | 8253 ft | 310 kts | 94° |
| 2026-05-05 01:04 | 40.05982 | -75.27958 | 8255 ft | 310 kts | 94° |
| 2026-05-05 01:05 | 40.05811 | -75.25175 | 8258 ft | 309 kts | 98° |
| 2026-05-05 01:05 | 40.05299 | -75.22450 | 8256 ft | 308 kts | 116° |
| 2026-05-05 01:05 | 40.04064 | -75.20258 | 8255 ft | 300 kts | 146° |
| 2026-05-05 01:05 | 40.02243 | -75.19048 | 8268 ft | 291 kts | 168° |
| 2026-05-05 01:06 | 40.00299 | -75.18272 | 8252 ft | 293 kts | 161° |
| 2026-05-05 01:06 | 39.98653 | -75.16713 | 8258 ft | 304 kts | 131° |
| 2026-05-05 01:06 | 39.97758 | -75.14196 | 8257 ft | 310 kts | 99° |
| 2026-05-05 01:06 | 39.97876 | -75.11398 | 8184 ft | 311 kts | 74° |
| 2026-05-05 01:07 | 39.98574 | -75.08781 | 8001 ft | 307 kts | 66° |
| 2026-05-05 01:07 | 39.99387 | -75.06201 | 7819 ft | 305 kts | 66° |
| 2026-05-05 01:07 | 40.00128 | -75.03640 | 7639 ft | 306 kts | 70° |
| 2026-05-05 01:07 | 40.00790 | -75.01010 | 7457 ft | 304 kts | 72° |
| 2026-05-05 01:08 | 40.01394 | -74.98357 | 7271 ft | 303 kts | 73° |
| 2026-05-05 01:08 | 40.01966 | -74.95748 | 7086 ft | 304 kts | 73° |
| 2026-05-05 01:08 | 40.02542 | -74.93098 | 6905 ft | 303 kts | 73° |
| 2026-05-05 01:08 | 40.03119 | -74.90458 | 6772 ft | 300 kts | 73° |
| 2026-05-05 01:09 | 40.03696 | -74.87826 | 6767 ft | 303 kts | 73° |
| 2026-05-05 01:09 | 40.04272 | -74.85207 | 6769 ft | 301 kts | 73° |
| 2026-05-05 01:09 | 40.04852 | -74.82565 | 6770 ft | 303 kts | 73° |
| 2026-05-05 01:09 | 40.05279 | -74.79883 | 6759 ft | 303 kts | 89° |
| 2026-05-05 01:10 | 40.04866 | -74.77264 | 6771 ft | 299 kts | 118° |
| 2026-05-05 01:10 | 40.03628 | -74.75143 | 6765 ft | 291 kts | 144° |
| 2026-05-05 01:10 | 40.01864 | -74.74040 | 6766 ft | 277 kts | 176° |
| 2026-05-05 01:10 | 40.00034 | -74.74312 | 6767 ft | 264 kts | 209° |
| 2026-05-05 01:11 | 39.98659 | -74.75796 | 6774 ft | 256 kts | 237° |
| 2026-05-05 01:11 | 39.97652 | -74.77716 | 6764 ft | 256 kts | 234° |
| 2026-05-05 01:11 | 39.96537 | -74.79542 | 6757 ft | 256 kts | 236° |
| 2026-05-05 01:11 | 39.95664 | -74.81534 | 6526 ft | 256 kts | 248° |
| 2026-05-05 01:12 | 39.95099 | -74.83742 | 6115 ft | 256 kts | 255° |
| 2026-05-05 01:12 | 39.94689 | -74.85957 | 5742 ft | 251 kts | 256° |
| 2026-05-05 01:12 | 39.94292 | -74.88164 | 5381 ft | 245 kts | 255° |
| 2026-05-05 01:12 | 39.93879 | -74.90305 | 5033 ft | 240 kts | 254° |
| 2026-05-05 01:13 | 39.93468 | -74.92368 | 4702 ft | 235 kts | 253° |
| 2026-05-05 01:13 | 39.93063 | -74.94406 | 4374 ft | 230 kts | 253° |
| 2026-05-05 01:13 | 39.92675 | -74.96379 | 4058 ft | 225 kts | 253° |
| 2026-05-05 01:13 | 39.92289 | -74.98336 | 3748 ft | 220 kts | 252° |
| 2026-05-05 01:14 | 39.91909 | -75.00258 | 3442 ft | 216 kts | 252° |
| 2026-05-05 01:14 | 39.91540 | -75.02118 | 3149 ft | 212 kts | 252° |
| 2026-05-05 01:14 | 39.91182 | -75.03982 | 2758 ft | 214 kts | 253° |
| 2026-05-05 01:14 | 39.90847 | -75.05874 | 2489 ft | 209 kts | 253° |
| 2026-05-05 01:15 | 39.90513 | -75.07632 | 2402 ft | 197 kts | 250° |
| 2026-05-05 01:15 | 39.90149 | -75.09347 | 2046 ft | 199 kts | 250° |
| 2026-05-05 01:15 | 39.89783 | -75.11089 | 1719 ft | 188 kts | 251° |
| 2026-05-05 01:15 | 39.89496 | -75.12664 | 1450 ft | 176 kts | 251° |
| 2026-05-05 01:16 | 39.89198 | -75.14211 | 1165 ft | 173 kts | 251° |
| 2026-05-05 01:16 | 39.88900 | -75.15682 | 1193 ft | 158 kts | 251° |
| 2026-05-05 01:16 | 39.88637 | -75.17042 | 1014 ft | 157 kts | 250° |
| 2026-05-05 01:16 | 39.88359 | -75.18380 | 695 ft | 148 kts | 249° |
| 2026-05-05 01:17 | 39.88071 | -75.19653 | 439 ft | 147 kts | 251° |
| 2026-05-05 01:17 | 39.87795 | -75.20936 | 260 ft | 149 kts | 252° |
| 2026-05-05 01:17 | 39.87540 | -75.22247 | 93 ft | 148 kts | 253° |
| 2026-05-05 01:17 | 39.87288 | -75.23470 | 16 ft | 123 kts | 257° |
| 2026-05-05 01:18 | 39.87163 | -75.24160 | 17 ft | 36 kts | 271° |
| 2026-05-05 01:18 | 39.87179 | -75.24365 | 17 ft | 12 kts | 284° |
| 2026-05-05 01:18 | 39.87203 | -75.24475 | 17 ft | 12 kts | 290° |
| 2026-05-05 01:18 | 39.87238 | -75.24528 | 17 ft | 0 kts | 335° |
| 2026-05-05 01:19 | 39.87255 | -75.24530 | 17 ft | 5 kts | 27° |
| 2026-05-05 01:19 | 39.87277 | -75.24471 | 17 ft | 7 kts | 75° |
| 2026-05-05 01:19 | 39.87290 | -75.24406 | 17 ft | 7 kts | 76° |
| 2026-05-05 01:19 | 39.87302 | -75.24339 | 17 ft | 7 kts | 76° |
| 2026-05-05 01:20 | 39.87316 | -75.24271 | 16 ft | 7 kts | 67° |
| 2026-05-05 01:20 | 39.87355 | -75.24225 | 16 ft | 7 kts | 37° |
| 2026-05-05 01:20 | 39.87388 | -75.24185 | 16 ft | 4 kts | 48° |
| 2026-05-05 01:20 | 39.87400 | -75.24168 | 16 ft | 0 kts | 49° |